sensor_id;sensor_type;location;lat;lon;timestamp;pressure;altitude;pressure_sealevel;temperature;humidity
32933;BME280;19444;50.518;10.870;2023-06-22T00:00:36;96868.84;;;17.60;100.00
32933;BME280;19444;50.518;10.870;2023-06-22T00:03:33;96883.97;;;17.61;100.00
32933;BME280;19444;50.518;10.870;2023-06-22T00:06:30;96879.25;;;17.58;100.00
32933;BME280;19444;50.518;10.870;2023-06-22T00:09:27;96870.34;;;17.57;100.00
32933;BME280;19444;50.518;10.870;2023-06-22T00:12:24;96889.28;;;16.93;100.00
32933;BME280;19444;50.518;10.870;2023-06-22T00:15:21;96877.75;;;17.08;100.00
32933;BME280;19444;50.518;10.870;2023-06-22T00:18:17;96891.31;;;16.84;100.00
32933;BME280;19444;50.518;10.870;2023-06-22T00:21:15;96895.03;;;17.03;100.00
32933;BME280;19444;50.518;10.870;2023-06-22T00:24:12;96890.97;;;16.85;100.00
32933;BME280;19444;50.518;10.870;2023-06-22T00:27:08;96878.88;;;17.31;100.00
32933;BME280;19444;50.518;10.870;2023-06-22T00:30:06;96865.44;;;17.23;100.00
32933;BME280;19444;50.518;10.870;2023-06-22T00:33:03;96856.75;;;17.17;100.00
32933;BME280;19444;50.518;10.870;2023-06-22T00:36:00;96842.09;;;17.18;100.00
32933;BME280;19444;50.518;10.870;2023-06-22T00:38:59;96827.22;;;17.12;100.00
32933;BME280;19444;50.518;10.870;2023-06-22T00:41:56;96834.81;;;16.94;100.00
32933;BME280;19444;50.518;10.870;2023-06-22T00:44:53;96842.56;;;17.08;100.00
32933;BME280;19444;50.518;10.870;2023-06-22T00:47:57;96849.88;;;17.20;100.00
32933;BME280;19444;50.518;10.870;2023-06-22T00:50:55;96847.31;;;17.11;100.00
32933;BME280;19444;50.518;10.870;2023-06-22T00:53:52;96850.56;;;17.17;100.00
32933;BME280;19444;50.518;10.870;2023-06-22T00:56:59;96843.88;;;17.26;100.00
32933;BME280;19444;50.518;10.870;2023-06-22T00:59:56;96846.84;;;17.09;100.00
32933;BME280;19444;50.518;10.870;2023-06-22T01:02:54;96845.84;;;17.14;100.00
32933;BME280;19444;50.518;10.870;2023-06-22T01:05:51;96835.44;;;17.16;100.00
32933;BME280;19444;50.518;10.870;2023-06-22T01:08:57;96835.00;;;17.14;100.00
32933;BME280;19444;50.518;10.870;2023-06-22T01:12:06;96820.53;;;17.10;100.00
32933;BME280;19444;50.518;10.870;2023-06-22T01:18:30;96834.81;;;16.70;100.00
32933;BME280;19444;50.518;10.870;2023-06-22T01:21:30;96824.44;;;16.72;100.00
32933;BME280;19444;50.518;10.870;2023-06-22T01:24:32;96814.03;;;16.62;100.00
32933;BME280;19444;50.518;10.870;2023-06-22T01:27:56;96818.09;;;16.43;100.00
32933;BME280;19444;50.518;10.870;2023-06-22T01:30:58;96808.63;;;16.49;100.00
32933;BME280;19444;50.518;10.870;2023-06-22T01:34:05;96814.16;;;16.90;100.00
32933;BME280;19444;50.518;10.870;2023-06-22T01:37:03;96807.94;;;17.01;100.00
32933;BME280;19444;50.518;10.870;2023-06-22T01:40:02;96778.97;;;16.90;100.00
32933;BME280;19444;50.518;10.870;2023-06-22T01:43:01;96772.53;;;16.94;100.00
32933;BME280;19444;50.518;10.870;2023-06-22T01:46:02;96784.38;;;16.65;100.00
32933;BME280;19444;50.518;10.870;2023-06-22T01:49:00;96808.06;;;16.81;100.00
32933;BME280;19444;50.518;10.870;2023-06-22T01:51:57;96802.13;;;16.75;100.00
32933;BME280;19444;50.518;10.870;2023-06-22T01:54:54;96791.13;;;16.96;100.00
32933;BME280;19444;50.518;10.870;2023-06-22T01:57:51;96801.41;;;16.90;100.00
32933;BME280;19444;50.518;10.870;2023-06-22T02:01:09;96787.78;;;16.87;100.00
32933;BME280;19444;50.518;10.870;2023-06-22T02:04:24;96779.66;;;16.87;100.00
32933;BME280;19444;50.518;10.870;2023-06-22T02:07:24;96774.81;;;16.80;100.00
32933;BME280;19444;50.518;10.870;2023-06-22T02:10:23;96781.00;;;16.81;100.00
32933;BME280;19444;50.518;10.870;2023-06-22T02:13:23;96789.91;;;16.81;100.00
32933;BME280;19444;50.518;10.870;2023-06-22T02:16:21;96783.72;;;16.81;100.00
32933;BME280;19444;50.518;10.870;2023-06-22T02:19:23;96783.25;;;16.78;100.00
32933;BME280;19444;50.518;10.870;2023-06-22T02:22:21;96788.56;;;16.87;100.00
32933;BME280;19444;50.518;10.870;2023-06-22T02:25:18;96798.94;;;16.85;100.00
32933;BME280;19444;50.518;10.870;2023-06-22T02:28:16;96814.06;;;16.86;100.00
32933;BME280;19444;50.518;10.870;2023-06-22T02:31:15;96838.75;;;16.85;100.00
32933;BME280;19444;50.518;10.870;2023-06-22T02:34:12;96833.31;;;16.97;100.00
32933;BME280;19444;50.518;10.870;2023-06-22T02:37:14;96845.84;;;17.01;100.00
32933;BME280;19444;50.518;10.870;2023-06-22T02:40:12;96869.78;;;16.75;100.00
32933;BME280;19444;50.518;10.870;2023-06-22T02:43:09;96874.84;;;16.89;100.00
32933;BME280;19444;50.518;10.870;2023-06-22T02:46:06;96879.69;;;16.95;100.00
32933;BME280;19444;50.518;10.870;2023-06-22T02:49:02;96891.19;;;17.04;100.00
32933;BME280;19444;50.518;10.870;2023-06-22T02:51:59;96917.13;;;17.05;100.00
32933;BME280;19444;50.518;10.870;2023-06-22T02:54:56;96927.75;;;17.11;100.00
32933;BME280;19444;50.518;10.870;2023-06-22T02:57:53;96948.97;;;16.96;100.00
32933;BME280;19444;50.518;10.870;2023-06-22T03:00:50;96972.56;;;17.20;100.00
32933;BME280;19444;50.518;10.870;2023-06-22T03:03:50;96997.63;;;17.29;100.00
32933;BME280;19444;50.518;10.870;2023-06-22T03:06:47;97016.66;;;17.09;100.00
32933;BME280;19444;50.518;10.870;2023-06-22T03:09:48;97015.00;;;17.28;100.00
32933;BME280;19444;50.518;10.870;2023-06-22T03:12:44;97008.53;;;17.09;100.00
32933;BME280;19444;50.518;10.870;2023-06-22T03:15:41;97000.75;;;16.95;100.00
32933;BME280;19444;50.518;10.870;2023-06-22T03:18:38;96992.03;;;16.89;100.00
32933;BME280;19444;50.518;10.870;2023-06-22T03:21:37;96996.66;;;16.89;100.00
32933;BME280;19444;50.518;10.870;2023-06-22T03:24:35;97003.66;;;16.90;100.00
32933;BME280;19444;50.518;10.870;2023-06-22T03:27:33;97010.34;;;17.04;100.00
32933;BME280;19444;50.518;10.870;2023-06-22T03:30:30;96962.94;;;16.98;100.00
32933;BME280;19444;50.518;10.870;2023-06-22T03:33:28;96900.44;;;16.91;100.00
32933;BME280;19444;50.518;10.870;2023-06-22T03:36:24;96855.00;;;16.85;100.00
32933;BME280;19444;50.518;10.870;2023-06-22T03:39:21;96828.47;;;16.90;100.00
32933;BME280;19444;50.518;10.870;2023-06-22T03:42:18;96844.91;;;17.10;100.00
32933;BME280;19444;50.518;10.870;2023-06-22T03:45:15;96846.97;;;16.88;100.00
32933;BME280;19444;50.518;10.870;2023-06-22T03:48:12;96836.69;;;16.57;100.00
32933;BME280;19444;50.518;10.870;2023-06-22T03:51:09;96835.09;;;16.32;100.00
32933;BME280;19444;50.518;10.870;2023-06-22T03:54:06;96812.34;;;16.57;100.00
32933;BME280;19444;50.518;10.870;2023-06-22T03:57:03;96787.41;;;16.64;100.00
32933;BME280;19444;50.518;10.870;2023-06-22T04:00:01;96789.47;;;16.79;100.00
32933;BME280;19444;50.518;10.870;2023-06-22T04:02:58;96793.09;;;16.71;100.00
32933;BME280;19444;50.518;10.870;2023-06-22T04:05:55;96778.16;;;16.89;100.00
32933;BME280;19444;50.518;10.870;2023-06-22T04:08:52;96777.34;;;17.13;100.00
32933;BME280;19444;50.518;10.870;2023-06-22T04:11:49;96768.38;;;17.25;100.00
32933;BME280;19444;50.518;10.870;2023-06-22T04:14:46;96762.97;;;17.25;100.00
32933;BME280;19444;50.518;10.870;2023-06-22T04:17:43;96762.47;;;17.35;100.00
32933;BME280;19444;50.518;10.870;2023-06-22T04:20:40;96764.31;;;17.31;100.00
32933;BME280;19444;50.518;10.870;2023-06-22T04:23:37;96745.75;;;17.61;100.00
32933;BME280;19444;50.518;10.870;2023-06-22T04:26:34;96729.50;;;17.61;100.00
32933;BME280;19444;50.518;10.870;2023-06-22T04:29:33;96726.78;;;17.61;100.00
32933;BME280;19444;50.518;10.870;2023-06-22T04:32:30;96724.16;;;17.64;100.00
32933;BME280;19444;50.518;10.870;2023-06-22T04:35:27;96734.19;;;17.76;100.00
32933;BME280;19444;50.518;10.870;2023-06-22T04:38:27;96750.72;;;17.71;100.00
32933;BME280;19444;50.518;10.870;2023-06-22T04:41:23;96756.56;;;17.73;100.00
32933;BME280;19444;50.518;10.870;2023-06-22T04:44:21;96761.44;;;17.68;100.00
32933;BME280;19444;50.518;10.870;2023-06-22T04:47:21;96770.47;;;17.72;100.00
32933;BME280;19444;50.518;10.870;2023-06-22T04:50:18;96766.28;;;17.74;100.00
32933;BME280;19444;50.518;10.870;2023-06-22T04:53:17;96758.44;;;17.85;100.00
32933;BME280;19444;50.518;10.870;2023-06-22T04:56:14;96750.22;;;17.97;100.00
32933;BME280;19444;50.518;10.870;2023-06-22T04:59:15;96754.03;;;17.80;100.00
32933;BME280;19444;50.518;10.870;2023-06-22T05:02:12;96759.94;;;17.98;100.00
32933;BME280;19444;50.518;10.870;2023-06-22T05:05:09;96762.13;;;18.24;100.00
32933;BME280;19444;50.518;10.870;2023-06-22T05:08:11;96748.63;;;18.43;100.00
32933;BME280;19444;50.518;10.870;2023-06-22T05:11:08;96754.59;;;18.49;100.00
32933;BME280;19444;50.518;10.870;2023-06-22T05:14:05;96751.63;;;18.38;100.00
32933;BME280;19444;50.518;10.870;2023-06-22T05:17:02;96749.94;;;18.50;100.00
32933;BME280;19444;50.518;10.870;2023-06-22T05:20:01;96746.88;;;18.35;100.00
32933;BME280;19444;50.518;10.870;2023-06-22T05:22:59;96750.72;;;18.50;100.00
32933;BME280;19444;50.518;10.870;2023-06-22T05:25:56;96746.44;;;18.65;100.00
32933;BME280;19444;50.518;10.870;2023-06-22T05:28:55;96742.47;;;18.78;100.00
32933;BME280;19444;50.518;10.870;2023-06-22T05:31:52;96742.66;;;19.04;100.00
32933;BME280;19444;50.518;10.870;2023-06-22T05:34:49;96733.44;;;19.48;100.00
32933;BME280;19444;50.518;10.870;2023-06-22T05:37:46;96742.25;;;19.60;100.00
32933;BME280;19444;50.518;10.870;2023-06-22T05:40:43;96737.66;;;19.65;100.00
32933;BME280;19444;50.518;10.870;2023-06-22T05:43:40;96732.06;;;19.77;100.00
32933;BME280;19444;50.518;10.870;2023-06-22T05:46:39;96738.84;;;19.86;100.00
32933;BME280;19444;50.518;10.870;2023-06-22T05:49:36;96747.78;;;19.87;100.00
32933;BME280;19444;50.518;10.870;2023-06-22T05:52:33;96750.91;;;19.89;100.00
32933;BME280;19444;50.518;10.870;2023-06-22T05:55:30;96746.03;;;19.98;100.00
32933;BME280;19444;50.518;10.870;2023-06-22T05:58:28;96729.63;;;20.17;100.00
32933;BME280;19444;50.518;10.870;2023-06-22T06:01:25;96726.03;;;20.36;100.00
32933;BME280;19444;50.518;10.870;2023-06-22T06:04:22;96722.06;;;20.53;100.00
32933;BME280;19444;50.518;10.870;2023-06-22T06:07:20;96736.41;;;20.50;100.00
32933;BME280;19444;50.518;10.870;2023-06-22T06:10:18;96743.53;;;20.58;100.00
32933;BME280;19444;50.518;10.870;2023-06-22T06:13:15;96741.63;;;20.62;100.00
32933;BME280;19444;50.518;10.870;2023-06-22T06:16:12;96728.25;;;20.77;100.00
32933;BME280;19444;50.518;10.870;2023-06-22T06:19:09;96722.78;;;20.77;100.00
32933;BME280;19444;50.518;10.870;2023-06-22T06:22:06;96718.63;;;20.86;100.00
32933;BME280;19444;50.518;10.870;2023-06-22T06:25:03;96723.06;;;20.98;100.00
32933;BME280;19444;50.518;10.870;2023-06-22T06:28:01;96719.16;;;20.95;100.00
32933;BME280;19444;50.518;10.870;2023-06-22T06:30:58;96725.47;;;21.03;100.00
32933;BME280;19444;50.518;10.870;2023-06-22T06:33:55;96720.47;;;21.09;100.00
32933;BME280;19444;50.518;10.870;2023-06-22T06:36:52;96733.13;;;21.24;100.00
32933;BME280;19444;50.518;10.870;2023-06-22T06:39:49;96725.34;;;21.22;100.00
32933;BME280;19444;50.518;10.870;2023-06-22T06:42:48;96720.53;;;21.42;100.00
32933;BME280;19444;50.518;10.870;2023-06-22T06:45:45;96703.50;;;21.52;100.00
32933;BME280;19444;50.518;10.870;2023-06-22T06:48:42;96704.84;;;21.69;100.00
32933;BME280;19444;50.518;10.870;2023-06-22T06:51:39;96699.47;;;21.80;100.00
32933;BME280;19444;50.518;10.870;2023-06-22T06:54:36;96691.78;;;21.93;100.00
32933;BME280;19444;50.518;10.870;2023-06-22T06:57:33;96691.00;;;21.92;100.00
32933;BME280;19444;50.518;10.870;2023-06-22T07:00:30;96687.97;;;22.01;100.00
32933;BME280;19444;50.518;10.870;2023-06-22T07:03:27;96687.19;;;22.00;100.00
32933;BME280;19444;50.518;10.870;2023-06-22T07:06:24;96686.25;;;22.23;100.00
32933;BME280;19444;50.518;10.870;2023-06-22T07:09:25;96678.41;;;22.21;100.00
32933;BME280;19444;50.518;10.870;2023-06-22T07:12:22;96686.72;;;22.39;100.00
32933;BME280;19444;50.518;10.870;2023-06-22T07:15:19;96678.91;;;22.37;100.00
32933;BME280;19444;50.518;10.870;2023-06-22T07:18:17;96676.56;;;22.32;100.00
32933;BME280;19444;50.518;10.870;2023-06-22T07:21:14;96677.78;;;22.42;100.00
32933;BME280;19444;50.518;10.870;2023-06-22T07:24:11;96666.88;;;22.49;100.00
32933;BME280;19444;50.518;10.870;2023-06-22T07:27:08;96663.69;;;22.33;100.00
32933;BME280;19444;50.518;10.870;2023-06-22T07:30:08;96675.50;;;22.51;100.00
32933;BME280;19444;50.518;10.870;2023-06-22T07:33:05;96670.56;;;22.75;100.00
32933;BME280;19444;50.518;10.870;2023-06-22T07:36:05;96667.78;;;22.64;100.00
32933;BME280;19444;50.518;10.870;2023-06-22T07:39:05;96660.13;;;22.87;100.00
32933;BME280;19444;50.518;10.870;2023-06-22T07:42:02;96652.38;;;23.11;100.00
32933;BME280;19444;50.518;10.870;2023-06-22T07:44:59;96653.94;;;23.12;100.00
32933;BME280;19444;50.518;10.870;2023-06-22T07:47:57;96659.81;;;23.10;100.00
32933;BME280;19444;50.518;10.870;2023-06-22T07:50:54;96643.47;;;23.24;100.00
32933;BME280;19444;50.518;10.870;2023-06-22T07:53:51;96644.63;;;23.27;100.00
32933;BME280;19444;50.518;10.870;2023-06-22T07:56:48;96645.06;;;23.33;100.00
32933;BME280;19444;50.518;10.870;2023-06-22T07:59:45;96638.41;;;23.34;100.00
32933;BME280;19444;50.518;10.870;2023-06-22T08:02:45;96645.09;;;23.58;100.00
32933;BME280;19444;50.518;10.870;2023-06-22T08:05:43;96638.44;;;23.59;100.00
32933;BME280;19444;50.518;10.870;2023-06-22T08:08:40;96629.50;;;23.65;100.00
32933;BME280;19444;50.518;10.870;2023-06-22T08:11:39;96635.00;;;23.79;100.00
32933;BME280;19444;50.518;10.870;2023-06-22T08:14:38;96614.25;;;24.00;100.00
32933;BME280;19444;50.518;10.870;2023-06-22T08:17:39;96623.25;;;24.11;100.00
32933;BME280;19444;50.518;10.870;2023-06-22T08:20:36;96618.16;;;24.17;100.00
32933;BME280;19444;50.518;10.870;2023-06-22T08:23:33;96615.34;;;24.56;100.00
32933;BME280;19444;50.518;10.870;2023-06-22T08:26:30;96611.03;;;24.62;100.00
32933;BME280;19444;50.518;10.870;2023-06-22T08:29:27;96613.31;;;24.78;100.00
32933;BME280;19444;50.518;10.870;2023-06-22T08:32:27;96604.69;;;24.83;100.00
32933;BME280;19444;50.518;10.870;2023-06-22T08:35:25;96606.41;;;25.32;100.00
32933;BME280;19444;50.518;10.870;2023-06-22T08:38:22;96604.47;;;25.33;100.00
32933;BME280;19444;50.518;10.870;2023-06-22T08:41:19;96590.78;;;25.29;100.00
32933;BME280;19444;50.518;10.870;2023-06-22T08:44:18;96601.22;;;25.52;100.00
32933;BME280;19444;50.518;10.870;2023-06-22T08:47:16;96579.88;;;25.77;97.08
32933;BME280;19444;50.518;10.870;2023-06-22T08:50:13;96588.66;;;25.51;97.29
32933;BME280;19444;50.518;10.870;2023-06-22T08:53:10;96590.28;;;25.97;100.00
32933;BME280;19444;50.518;10.870;2023-06-22T08:56:07;96588.59;;;26.10;100.00
32933;BME280;19444;50.518;10.870;2023-06-22T08:59:03;96585.28;;;25.88;98.22
32933;BME280;19444;50.518;10.870;2023-06-22T09:02:00;96585.56;;;26.01;94.61
32933;BME280;19444;50.518;10.870;2023-06-22T09:04:57;96580.25;;;26.24;100.00
32933;BME280;19444;50.518;10.870;2023-06-22T09:07:56;96581.34;;;26.30;91.92
32933;BME280;19444;50.518;10.870;2023-06-22T09:10:55;96576.25;;;26.67;93.75
32933;BME280;19444;50.518;10.870;2023-06-22T09:13:52;96574.41;;;26.56;90.21
32933;BME280;19444;50.518;10.870;2023-06-22T09:16:50;96572.28;;;27.02;88.04
32933;BME280;19444;50.518;10.870;2023-06-22T09:19:47;96568.75;;;27.01;83.42
32933;BME280;19444;50.518;10.870;2023-06-22T09:22:44;96586.13;;;26.94;79.40
32933;BME280;19444;50.518;10.870;2023-06-22T09:25:41;96577.09;;;27.25;73.68
32933;BME280;19444;50.518;10.870;2023-06-22T09:28:38;96567.50;;;27.09;77.60
32933;BME280;19444;50.518;10.870;2023-06-22T09:31:35;96568.13;;;27.20;77.20
32933;BME280;19444;50.518;10.870;2023-06-22T09:34:32;96568.22;;;27.67;82.25
32933;BME280;19444;50.518;10.870;2023-06-22T09:37:28;96558.03;;;27.64;79.12
32933;BME280;19444;50.518;10.870;2023-06-22T09:40:25;96566.84;;;27.52;74.42
32933;BME280;19444;50.518;10.870;2023-06-22T09:43:23;96561.41;;;27.75;73.60
32933;BME280;19444;50.518;10.870;2023-06-22T09:46:19;96552.41;;;27.95;71.22
32933;BME280;19444;50.518;10.870;2023-06-22T09:49:18;96553.75;;;28.53;86.11
32933;BME280;19444;50.518;10.870;2023-06-22T09:52:33;96556.97;;;28.48;82.85
32933;BME280;19444;50.518;10.870;2023-06-22T09:55:44;96534.66;;;28.63;65.83
32933;BME280;19444;50.518;10.870;2023-06-22T09:58:42;96532.50;;;28.07;67.23
32933;BME280;19444;50.518;10.870;2023-06-22T10:01:39;96534.34;;;28.37;68.84
32933;BME280;19444;50.518;10.870;2023-06-22T10:04:36;96537.41;;;27.76;77.85
32933;BME280;19444;50.518;10.870;2023-06-22T10:07:34;96539.88;;;27.43;88.67
32933;BME280;19444;50.518;10.870;2023-06-22T10:10:31;96540.31;;;27.65;94.51
32933;BME280;19444;50.518;10.870;2023-06-22T10:13:28;96530.41;;;28.58;79.54
32933;BME280;19444;50.518;10.870;2023-06-22T10:16:31;96531.00;;;28.26;76.37
32933;BME280;19444;50.518;10.870;2023-06-22T10:19:28;96513.38;;;28.79;69.56
32933;BME280;19444;50.518;10.870;2023-06-22T10:22:25;96528.66;;;29.04;71.32
32933;BME280;19444;50.518;10.870;2023-06-22T10:25:22;96524.19;;;29.10;65.65
32933;BME280;19444;50.518;10.870;2023-06-22T10:28:19;96515.16;;;28.70;71.63
32933;BME280;19444;50.518;10.870;2023-06-22T10:31:16;96519.53;;;28.87;69.64
32933;BME280;19444;50.518;10.870;2023-06-22T10:34:13;96511.72;;;29.38;62.39
32933;BME280;19444;50.518;10.870;2023-06-22T10:37:10;96505.56;;;29.14;58.82
32933;BME280;19444;50.518;10.870;2023-06-22T10:40:08;96503.94;;;29.33;57.79
32933;BME280;19444;50.518;10.870;2023-06-22T10:43:05;96505.16;;;29.81;60.64
32933;BME280;19444;50.518;10.870;2023-06-22T10:46:02;96517.63;;;29.56;78.28
32933;BME280;19444;50.518;10.870;2023-06-22T10:48:58;96516.22;;;29.48;62.82
32933;BME280;19444;50.518;10.870;2023-06-22T10:51:56;96516.31;;;28.52;63.83
32933;BME280;19444;50.518;10.870;2023-06-22T10:54:53;96504.75;;;29.50;62.61
32933;BME280;19444;50.518;10.870;2023-06-22T10:57:49;96498.66;;;29.87;53.20
32933;BME280;19444;50.518;10.870;2023-06-22T11:00:46;96494.75;;;29.72;54.28
32933;BME280;19444;50.518;10.870;2023-06-22T11:03:43;96475.50;;;29.97;53.71
32933;BME280;19444;50.518;10.870;2023-06-22T11:06:40;96486.22;;;30.12;55.46
32933;BME280;19444;50.518;10.870;2023-06-22T11:09:37;96476.06;;;30.63;51.76
32933;BME280;19444;50.518;10.870;2023-06-22T11:12:35;96470.03;;;30.39;53.67
32933;BME280;19444;50.518;10.870;2023-06-22T11:15:32;96495.03;;;29.25;86.62
32933;BME280;19444;50.518;10.870;2023-06-22T11:18:31;96474.72;;;30.55;61.56
32933;BME280;19444;50.518;10.870;2023-06-22T11:21:30;96481.47;;;30.12;63.57
32933;BME280;19444;50.518;10.870;2023-06-22T11:24:28;96469.34;;;30.90;48.87
32933;BME280;19444;50.518;10.870;2023-06-22T11:27:25;96464.59;;;31.15;57.76
32933;BME280;19444;50.518;10.870;2023-06-22T11:30:22;96463.63;;;30.42;51.41
32933;BME280;19444;50.518;10.870;2023-06-22T11:33:19;96451.22;;;30.89;52.04
32933;BME280;19444;50.518;10.870;2023-06-22T11:36:16;96448.56;;;31.10;47.59
32933;BME280;19444;50.518;10.870;2023-06-22T11:39:13;96435.94;;;31.22;43.33
32933;BME280;19444;50.518;10.870;2023-06-22T11:42:11;96424.66;;;31.29;45.32
32933;BME280;19444;50.518;10.870;2023-06-22T11:45:08;96429.72;;;31.05;47.54
32933;BME280;19444;50.518;10.870;2023-06-22T11:48:06;96422.66;;;30.66;52.65
32933;BME280;19444;50.518;10.870;2023-06-22T11:51:03;96418.53;;;31.09;47.25
32933;BME280;19444;50.518;10.870;2023-06-22T11:54:00;96407.09;;;31.80;43.77
32933;BME280;19444;50.518;10.870;2023-06-22T11:56:57;96407.56;;;32.22;45.75
32933;BME280;19444;50.518;10.870;2023-06-22T11:59:54;96405.88;;;32.24;42.83
32933;BME280;19444;50.518;10.870;2023-06-22T12:02:51;96388.66;;;32.51;40.40
32933;BME280;19444;50.518;10.870;2023-06-22T12:05:50;96391.06;;;31.62;44.59
32933;BME280;19444;50.518;10.870;2023-06-22T12:08:48;96386.16;;;31.79;44.75
32933;BME280;19444;50.518;10.870;2023-06-22T12:11:45;96396.81;;;31.46;45.54
32933;BME280;19444;50.518;10.870;2023-06-22T12:14:42;96399.97;;;30.84;45.06
32933;BME280;19444;50.518;10.870;2023-06-22T12:17:39;96391.44;;;31.04;54.15
32933;BME280;19444;50.518;10.870;2023-06-22T12:20:36;96381.75;;;31.68;44.98
32933;BME280;19444;50.518;10.870;2023-06-22T12:23:34;96380.91;;;31.24;49.52
32933;BME280;19444;50.518;10.870;2023-06-22T12:26:30;96374.59;;;30.60;51.22
32933;BME280;19444;50.518;10.870;2023-06-22T12:29:27;96368.53;;;30.78;51.72
32933;BME280;19444;50.518;10.870;2023-06-22T12:32:24;96368.97;;;31.02;48.32
32933;BME280;19444;50.518;10.870;2023-06-22T12:35:22;96364.44;;;30.95;46.60
32933;BME280;19444;50.518;10.870;2023-06-22T12:38:19;96371.53;;;29.74;75.27
32933;BME280;19444;50.518;10.870;2023-06-22T12:41:16;96372.81;;;29.99;64.02
32933;BME280;19444;50.518;10.870;2023-06-22T12:44:13;96360.13;;;30.69;50.89
32933;BME280;19444;50.518;10.870;2023-06-22T12:47:10;96357.56;;;30.62;51.16
32933;BME280;19444;50.518;10.870;2023-06-22T12:50:08;96357.16;;;30.76;46.79
32933;BME280;19444;50.518;10.870;2023-06-22T12:53:05;96361.81;;;30.66;52.68
32933;BME280;19444;50.518;10.870;2023-06-22T12:56:03;96355.53;;;31.26;47.30
32933;BME280;19444;50.518;10.870;2023-06-22T12:59:00;96350.19;;;31.31;45.74
32933;BME280;19444;50.518;10.870;2023-06-22T13:02:00;96347.28;;;31.69;49.64
32933;BME280;19444;50.518;10.870;2023-06-22T13:04:57;96351.78;;;31.07;56.03
32933;BME280;19444;50.518;10.870;2023-06-22T13:07:54;96353.09;;;30.13;55.54
32933;BME280;19444;50.518;10.870;2023-06-22T13:10:51;96340.41;;;30.92;45.10
32933;BME280;19444;50.518;10.870;2023-06-22T13:13:48;96331.53;;;32.32;42.74
32933;BME280;19444;50.518;10.870;2023-06-22T13:16:45;96337.56;;;31.18;45.62
32933;BME280;19444;50.518;10.870;2023-06-22T13:19:42;96322.03;;;31.46;50.59
32933;BME280;19444;50.518;10.870;2023-06-22T13:22:39;96319.47;;;31.04;53.63
32933;BME280;19444;50.518;10.870;2023-06-22T13:25:37;96321.53;;;29.98;58.08
32933;BME280;19444;50.518;10.870;2023-06-22T13:28:34;96313.06;;;30.94;48.43
32933;BME280;19444;50.518;10.870;2023-06-22T13:31:31;96313.13;;;29.89;48.05
32933;BME280;19444;50.518;10.870;2023-06-22T13:34:28;96302.25;;;30.49;51.28
32933;BME280;19444;50.518;10.870;2023-06-22T13:37:26;96309.13;;;29.48;60.47
32933;BME280;19444;50.518;10.870;2023-06-22T13:40:24;96304.13;;;30.39;51.52
32933;BME280;19444;50.518;10.870;2023-06-22T13:43:20;96305.19;;;28.71;87.22
32933;BME280;19444;50.518;10.870;2023-06-22T13:46:17;96293.34;;;28.02;92.23
32933;BME280;19444;50.518;10.870;2023-06-22T13:49:14;96294.66;;;28.82;75.00
32933;BME280;19444;50.518;10.870;2023-06-22T13:52:11;96284.41;;;28.14;90.80
32933;BME280;19444;50.518;10.870;2023-06-22T13:55:09;96279.31;;;28.13;93.53
32933;BME280;19444;50.518;10.870;2023-06-22T13:58:06;96284.97;;;27.89;96.67
32933;BME280;19444;50.518;10.870;2023-06-22T14:01:03;96280.72;;;27.85;100.00
32933;BME280;19444;50.518;10.870;2023-06-22T14:04:00;96278.03;;;28.01;99.62
32933;BME280;19444;50.518;10.870;2023-06-22T14:06:59;96288.72;;;28.15;100.00
32933;BME280;19444;50.518;10.870;2023-06-22T14:09:56;96278.09;;;28.33;100.00
32933;BME280;19444;50.518;10.870;2023-06-22T14:12:54;96268.50;;;29.90;66.33
32933;BME280;19444;50.518;10.870;2023-06-22T14:15:52;96267.41;;;29.59;86.46
32933;BME280;19444;50.518;10.870;2023-06-22T14:18:50;96253.69;;;30.35;59.89
32933;BME280;19444;50.518;10.870;2023-06-22T14:21:49;96249.19;;;30.28;51.44
32933;BME280;19444;50.518;10.870;2023-06-22T14:24:47;96245.38;;;31.21;62.93
32933;BME280;19444;50.518;10.870;2023-06-22T14:27:44;96241.44;;;31.18;47.86
32933;BME280;19444;50.518;10.870;2023-06-22T14:30:41;96235.44;;;31.76;53.32
32933;BME280;19444;50.518;10.870;2023-06-22T14:33:38;96237.56;;;31.50;48.08
32933;BME280;19444;50.518;10.870;2023-06-22T14:36:35;96235.66;;;30.43;53.03
32933;BME280;19444;50.518;10.870;2023-06-22T14:39:32;96226.81;;;31.52;48.32
32933;BME280;19444;50.518;10.870;2023-06-22T14:42:29;96232.69;;;31.76;55.49
32933;BME280;19444;50.518;10.870;2023-06-22T14:45:26;96224.34;;;32.07;50.63
32933;BME280;19444;50.518;10.870;2023-06-22T14:48:24;96229.31;;;31.81;48.84
32933;BME280;19444;50.518;10.870;2023-06-22T14:51:20;96219.19;;;31.43;44.58
32933;BME280;19444;50.518;10.870;2023-06-22T14:54:17;96215.97;;;31.45;46.36
32933;BME280;19444;50.518;10.870;2023-06-22T14:57:14;96212.97;;;31.30;46.86
32933;BME280;19444;50.518;10.870;2023-06-22T15:00:14;96203.84;;;30.13;52.51
32933;BME280;19444;50.518;10.870;2023-06-22T15:03:11;96200.63;;;30.02;62.33
32933;BME280;19444;50.518;10.870;2023-06-22T15:06:14;96184.47;;;30.39;61.52
32933;BME280;19444;50.518;10.870;2023-06-22T15:09:11;96166.72;;;31.40;47.10
32933;BME280;19444;50.518;10.870;2023-06-22T15:12:09;96173.31;;;31.33;47.11
32933;BME280;19444;50.518;10.870;2023-06-22T15:15:09;96172.09;;;31.65;51.95
32933;BME280;19444;50.518;10.870;2023-06-22T15:18:06;96164.06;;;31.27;46.17
32933;BME280;19444;50.518;10.870;2023-06-22T15:21:04;96153.53;;;31.00;48.53
32933;BME280;19444;50.518;10.870;2023-06-22T15:24:01;96163.56;;;31.07;51.01
32933;BME280;19444;50.518;10.870;2023-06-22T15:26:59;96154.16;;;30.82;46.42